createdAt,value
2023-04-06T00:00:17.423Z,10.62
2023-04-06T00:01:02.020Z,10.75
2023-04-06T00:01:46.910Z,10.21
2023-04-06T00:02:31.994Z,7.49
2023-04-06T00:03:17.791Z,10.75
2023-04-06T00:04:02.651Z,11.29
2023-04-06T00:04:47.568Z,7.85
2023-04-06T00:05:32.356Z,11.69
2023-04-06T00:06:17.530Z,11.83
2023-04-06T00:07:02.641Z,12.09
2023-04-06T00:07:53.568Z,8.22
2023-04-06T00:08:32.810Z,8.22
2023-04-06T00:09:17.773Z,8.22
2023-04-06T00:10:03.794Z,11.96
2023-04-06T00:10:47.893Z,12.36
2023-04-06T00:11:35.553Z,12.23
2023-04-06T00:12:17.850Z,12.23
2023-04-06T00:13:02.585Z,11.96
2023-04-06T00:13:47.568Z,12.09
2023-04-06T00:14:32.999Z,12.23
2023-04-06T00:15:19.143Z,8.13
2023-04-06T00:16:02.941Z,12.63
2023-04-06T00:16:48.157Z,11.56
2023-04-06T00:17:33.175Z,11.29
2023-04-06T00:18:17.825Z,12.09
2023-04-06T00:19:03.469Z,11.69
2023-04-06T00:19:47.707Z,11.56
2023-04-06T00:20:33.483Z,11.83
2023-04-06T00:21:18.057Z,12.23
2023-04-06T00:22:03.699Z,11.96
2023-04-06T00:22:48.300Z,11.42
2023-04-06T00:23:33.516Z,11.83
2023-04-06T00:24:18.652Z,11.56
2023-04-06T00:25:03.907Z,10.48
2023-04-06T00:25:48.295Z,11.69
2023-04-06T00:26:36.009Z,9.81
2023-04-06T00:27:18.940Z,10.08
2023-04-06T00:28:04.176Z,11.15
2023-04-06T00:29:34.544Z,10.21
2023-04-06T00:30:19.241Z,10.75
2023-04-06T00:31:04.071Z,7.31
2023-04-06T00:31:48.980Z,10.48
2023-04-06T00:32:34.618Z,10.48
2023-04-06T00:33:19.096Z,10.62
2023-04-06T00:34:04.231Z,10.62
2023-04-06T00:34:49.496Z,10.35
2023-04-06T00:35:34.764Z,10.88
2023-04-06T00:36:22.397Z,10.88
2023-04-06T00:37:04.098Z,10.48
2023-04-06T00:37:49.121Z,11.02
2023-04-06T00:38:33.946Z,10.88
2023-04-06T00:39:20.916Z,10.62
2023-04-06T00:40:07.702Z,10.21
2023-04-06T00:40:49.781Z,11.15
2023-04-06T00:41:34.837Z,10.88
2023-04-06T00:42:22.357Z,6.94
2023-04-06T00:43:04.494Z,10.21
2023-04-06T00:43:52.130Z,10.35
2023-04-06T00:44:44.477Z,10.48
2023-04-06T00:45:19.724Z,10.08
2023-04-06T00:46:13.636Z,10.75
2023-04-06T00:46:49.522Z,11.42
2023-04-06T00:47:34.536Z,11.15
2023-04-06T00:48:19.587Z,11.29
2023-04-06T00:49:04.617Z,11.96
2023-04-06T00:49:50.044Z,11.42
2023-04-06T00:50:35.096Z,11.29
2023-04-06T00:51:19.779Z,11.15
2023-04-06T00:52:05.020Z,11.29
2023-04-06T00:52:49.805Z,11.42
2023-04-06T00:53:34.732Z,11.42
2023-04-06T00:54:20.764Z,11.02
2023-04-06T00:55:05.332Z,11.15
2023-04-06T00:55:49.773Z,10.88
2023-04-06T00:56:35.694Z,11.42
2023-04-06T00:57:20.091Z,10.88
2023-04-06T00:58:05.146Z,10.75
2023-04-06T00:58:50.627Z,10.75
2023-04-06T00:59:35.257Z,7.03
2023-04-06T01:00:20.530Z,10.21
2023-04-06T01:01:05.449Z,10.21
2023-04-06T01:01:50.533Z,10.75
2023-04-06T01:02:35.360Z,10.75
2023-04-06T01:03:20.753Z,10.62
2023-04-06T01:04:05.782Z,11.02
2023-04-06T01:04:50.626Z,6.94
2023-04-06T01:05:35.493Z,10.62
2023-04-06T01:06:20.916Z,10.88
2023-04-06T01:07:06.778Z,11.02
2023-04-06T01:07:50.618Z,10.21
2023-04-06T01:08:35.793Z,10.48
2023-04-06T01:09:20.921Z,11.56
2023-04-06T01:10:06.078Z,11.15
2023-04-06T01:10:50.914Z,11.15
2023-04-06T01:11:36.305Z,11.02
2023-04-06T01:12:21.268Z,10.88
2023-04-06T01:13:06.920Z,10.48
2023-04-06T01:13:51.886Z,10.88
2023-04-06T01:14:36.025Z,10.75
2023-04-06T01:15:21.801Z,11.29
2023-04-06T01:16:07.124Z,10.62
2023-04-06T01:16:51.888Z,10.48
2023-04-06T01:17:36.820Z,10.21
2023-04-06T01:18:21.850Z,9.94
2023-04-06T01:19:07.007Z,11.15
2023-04-06T01:19:51.814Z,11.29
2023-04-06T01:20:36.828Z,11.42
2023-04-06T01:21:22.574Z,10.48
2023-04-06T01:22:06.699Z,10.88
2023-04-06T01:22:51.937Z,10.35
2023-04-06T01:23:36.764Z,11.02
2023-04-06T01:24:22.277Z,10.75
2023-04-06T01:25:07.901Z,10.62
2023-04-06T01:25:52.013Z,11.15
2023-04-06T01:26:38.331Z,10.88
2023-04-06T01:27:22.577Z,11.02
2023-04-06T01:28:08.055Z,7.21
2023-04-06T01:28:54.374Z,11.42
2023-04-06T01:29:39.099Z,11.02
2023-04-06T01:30:23.006Z,10.75
2023-04-06T01:31:08.900Z,10.21
2023-04-06T01:31:52.898Z,10.35
2023-04-06T01:32:38.323Z,10.88
2023-04-06T01:33:23.185Z,11.02
2023-04-06T01:34:08.815Z,10.88
2023-04-06T01:34:54.161Z,11.29
2023-04-06T01:35:37.741Z,10.88
2023-04-06T01:36:23.801Z,10.88
2023-04-06T01:37:08.580Z,11.02
2023-04-06T01:37:53.197Z,7.21
2023-04-06T01:38:38.030Z,11.29
2023-04-06T01:39:23.314Z,11.15
2023-04-06T01:40:09.042Z,11.15
2023-04-06T01:40:53.206Z,11.29
2023-04-06T01:41:38.272Z,7.67
2023-04-06T01:42:23.660Z,11.02
2023-04-06T01:43:09.068Z,11.15
2023-04-06T01:43:53.558Z,11.29
2023-04-06T01:44:38.465Z,10.88
2023-04-06T01:45:23.762Z,11.02
2023-04-06T01:46:08.663Z,11.15
2023-04-06T01:46:54.090Z,11.42
2023-04-06T01:47:39.230Z,11.29
2023-04-06T01:48:24.453Z,10.48
2023-04-06T01:49:09.010Z,10.62
2023-04-06T01:49:54.014Z,10.35
2023-04-06T01:50:38.858Z,9.54
2023-04-06T01:51:24.538Z,10.08
2023-04-06T01:52:09.070Z,10.35
2023-04-06T01:52:54.117Z,10.75
2023-04-06T01:53:39.288Z,11.29
2023-04-06T01:54:24.111Z,9.94
2023-04-06T01:55:09.559Z,10.21
2023-04-06T01:55:54.738Z,10.62
2023-04-06T01:56:39.979Z,10.88
2023-04-06T01:57:24.615Z,10.08
2023-04-06T01:58:09.777Z,10.35
2023-04-06T01:58:54.310Z,11.15
2023-04-06T01:59:39.380Z,11.02
2023-04-06T02:00:24.997Z,10.08
2023-04-06T02:01:09.458Z,10.88
2023-04-06T02:01:55.041Z,10.08
2023-04-06T02:02:40.130Z,6.76
2023-04-06T02:03:24.501Z,10.75
2023-04-06T02:04:10.694Z,10.75
2023-04-06T02:04:55.486Z,10.21
2023-04-06T02:05:40.788Z,7.12
2023-04-06T02:06:25.417Z,10.08
2023-04-06T02:07:10.418Z,10.08
2023-04-06T02:07:55.013Z,8.06
2023-04-06T02:08:40.461Z,9.00
2023-04-06T02:09:25.570Z,8.60
2023-04-06T02:10:10.118Z,9.14
2023-04-06T02:10:55.609Z,9.14
2023-04-06T02:11:40.149Z,8.60
2023-04-06T02:12:25.802Z,9.41
2023-04-06T02:13:10.808Z,8.73
2023-04-06T02:13:55.283Z,8.73
2023-04-06T02:14:40.395Z,8.73
2023-04-06T02:15:26.093Z,9.14
2023-04-06T02:16:10.528Z,9.14
2023-04-06T02:16:56.349Z,9.27
2023-04-06T02:17:40.596Z,9.54
2023-04-06T02:18:25.860Z,9.27
2023-04-06T02:19:11.336Z,9.27
2023-04-06T02:19:55.687Z,9.27
2023-04-06T02:20:40.978Z,9.00
2023-04-06T02:21:26.165Z,9.68
2023-04-06T02:22:11.105Z,9.27
2023-04-06T02:22:56.320Z,9.27
2023-04-06T02:23:41.549Z,9.14
2023-04-06T02:24:26.581Z,9.41
2023-04-06T02:25:11.971Z,9.41
2023-04-06T02:25:56.341Z,9.94
2023-04-06T02:26:40.897Z,10.08
2023-04-06T02:27:26.971Z,9.41
2023-04-06T02:28:12.038Z,9.68
2023-04-06T02:28:58.282Z,9.68
2023-04-06T02:29:42.350Z,9.54
2023-04-06T02:30:28.727Z,9.54
2023-04-06T02:31:11.892Z,9.68
2023-04-06T02:31:56.920Z,8.33
2023-04-06T02:32:42.738Z,6.03
2023-04-06T02:33:26.534Z,9.14
2023-04-06T02:34:11.704Z,5.75
2023-04-06T02:34:57.552Z,8.47
2023-04-06T02:35:41.939Z,8.73
2023-04-06T02:36:28.182Z,8.20
2023-04-06T02:37:11.998Z,8.06
2023-04-06T02:37:57.664Z,5.48
2023-04-06T02:38:43.026Z,5.48
2023-04-06T02:39:27.470Z,7.93
2023-04-06T02:40:12.528Z,8.20
2023-04-06T02:40:58.094Z,7.66
2023-04-06T02:41:43.674Z,8.20
2023-04-06T02:42:28.415Z,5.21
2023-04-06T02:43:12.878Z,7.93
2023-04-06T02:43:59.036Z,7.93
2023-04-06T02:44:43.380Z,7.79
2023-04-06T02:45:27.921Z,7.53
2023-04-06T02:46:13.029Z,7.53
2023-04-06T02:46:58.029Z,7.39
2023-04-06T02:47:42.658Z,7.66
2023-04-06T02:48:27.690Z,4.84
2023-04-06T02:49:12.437Z,7.66
2023-04-06T02:49:57.644Z,7.12
2023-04-06T02:50:43.225Z,7.39
2023-04-06T02:51:28.370Z,7.53
2023-04-06T02:52:13.035Z,6.85
2023-04-06T02:52:58.143Z,7.12
2023-04-06T02:53:43.130Z,7.12
2023-04-06T02:54:29.004Z,7.26
2023-04-06T02:55:13.848Z,7.26
2023-04-06T02:55:58.106Z,5.39
2023-04-06T02:56:43.293Z,5.11
2023-04-06T02:57:28.857Z,6.58
2023-04-06T02:58:13.308Z,6.99
2023-04-06T02:58:58.155Z,7.12
2023-04-06T02:59:43.616Z,6.85
2023-04-06T03:00:28.961Z,6.72
2023-04-06T03:01:13.862Z,7.26
2023-04-06T03:01:58.605Z,7.12
2023-04-06T03:02:43.456Z,6.85
2023-04-06T03:03:28.997Z,4.57
2023-04-06T03:05:24.059Z,6.85
2023-04-06T03:05:44.061Z,4.38
2023-04-06T03:07:04.556Z,4.57
2023-04-06T03:07:19.504Z,6.72
2023-04-06T03:07:59.206Z,4.57
2023-04-06T03:08:43.878Z,6.45
2023-04-06T03:09:29.012Z,6.72
2023-04-06T03:10:13.766Z,6.58
2023-04-06T03:10:58.748Z,5.91
2023-04-06T03:11:44.917Z,6.05
2023-04-06T03:12:29.342Z,4.97
2023-04-06T03:13:14.122Z,5.51
2023-04-06T03:13:59.870Z,3.47
2023-04-06T03:14:44.291Z,3.65
2023-04-06T03:15:29.393Z,5.38
2023-04-06T03:16:14.313Z,4.97
2023-04-06T03:16:59.837Z,5.38
2023-04-06T03:17:50.928Z,5.64
2023-04-06T03:18:29.608Z,5.51
2023-04-06T03:19:14.690Z,5.11
2023-04-06T03:20:00.491Z,4.57
2023-04-06T03:20:44.787Z,4.57
2023-04-06T03:21:30.010Z,4.70
2023-04-06T03:22:14.556Z,4.57
2023-04-06T03:23:00.573Z,4.84
2023-04-06T03:23:44.942Z,4.84
2023-04-06T03:24:30.194Z,4.84
2023-04-06T03:25:18.856Z,4.30
2023-04-06T03:26:00.246Z,4.43
2023-04-06T03:26:45.430Z,4.30
2023-04-06T03:27:30.647Z,4.70
2023-04-06T03:28:15.509Z,4.57
2023-04-06T03:29:00.645Z,4.57
2023-04-06T03:29:45.747Z,4.17
2023-04-06T03:30:30.294Z,2.92
2023-04-06T03:31:16.516Z,4.43
2023-04-06T03:32:00.692Z,4.57
2023-04-06T03:32:45.750Z,4.17
2023-04-06T03:33:30.784Z,4.03
2023-04-06T03:34:15.570Z,4.30
2023-04-06T03:35:01.476Z,3.76
2023-04-06T03:35:47.516Z,3.76
2023-04-06T03:36:30.900Z,4.03
2023-04-06T03:37:16.119Z,4.30
2023-04-06T03:38:01.182Z,4.30
2023-04-06T03:38:51.988Z,3.11
2023-04-06T03:39:34.131Z,4.43
2023-04-06T03:40:17.919Z,4.30
2023-04-06T03:41:08.193Z,4.03
2023-04-06T03:41:46.600Z,4.70
2023-04-06T03:42:31.091Z,3.29
2023-04-06T03:43:16.235Z,4.57
2023-04-06T03:44:02.078Z,4.43
2023-04-06T03:44:45.981Z,4.17
2023-04-06T03:45:32.136Z,4.57
2023-04-06T03:46:17.271Z,4.84
2023-04-06T03:47:02.033Z,5.91
2023-04-06T03:47:46.808Z,6.05
2023-04-06T03:48:31.891Z,6.18
2023-04-06T03:49:16.793Z,6.18
2023-04-06T03:50:01.783Z,6.18
2023-04-06T03:50:47.110Z,5.91
2023-04-06T03:51:32.404Z,5.78
2023-04-06T03:52:17.324Z,3.93
2023-04-06T03:53:02.132Z,5.91
2023-04-06T03:53:46.973Z,5.24
2023-04-06T03:54:32.700Z,5.91
2023-04-06T03:55:17.433Z,6.05
2023-04-06T03:56:04.237Z,5.64
2023-04-06T03:56:47.297Z,5.51
2023-04-06T03:57:32.613Z,4.97
2023-04-06T03:58:17.981Z,4.70
2023-04-06T03:59:03.097Z,3.20
2023-04-06T03:59:47.886Z,4.97
2023-04-06T04:00:33.373Z,4.84
2023-04-06T04:01:18.134Z,4.70
2023-04-06T04:02:02.752Z,4.70
2023-04-06T04:02:48.585Z,4.84
2023-04-06T04:03:33.925Z,3.11
2023-04-06T04:04:18.120Z,4.70
2023-04-06T04:05:03.745Z,3.20
2023-04-06T04:05:48.905Z,4.57
2023-04-06T04:06:33.411Z,4.57
2023-04-06T04:07:20.701Z,4.70
2023-04-06T04:08:10.164Z,3.11
2023-04-06T04:08:48.157Z,4.03
2023-04-06T04:09:33.694Z,4.57
2023-04-06T04:10:19.743Z,4.57
2023-04-06T04:11:03.937Z,4.30
2023-04-06T04:11:49.203Z,3.01
2023-04-06T04:12:33.636Z,4.03
2023-04-06T04:13:18.811Z,3.90
2023-04-06T04:14:03.853Z,3.09
2023-04-06T04:14:49.005Z,3.23
2023-04-06T04:15:34.065Z,3.23
2023-04-06T04:16:19.361Z,3.09
2023-04-06T04:17:04.515Z,2.42
2023-04-06T04:17:48.994Z,3.09
2023-04-06T04:18:33.881Z,2.69
2023-04-06T04:19:19.548Z,3.09
2023-04-06T04:20:04.791Z,3.36
2023-04-06T04:20:49.106Z,2.82
2023-04-06T04:21:34.366Z,2.82
2023-04-06T04:22:19.475Z,2.55
2023-04-06T04:23:04.848Z,2.96
2023-04-06T04:23:52.556Z,2.69
2023-04-06T04:24:37.977Z,3.23
2023-04-06T04:25:19.488Z,2.01
2023-04-06T04:26:05.895Z,2.82
2023-04-06T04:26:49.905Z,3.09
2023-04-06T04:27:34.980Z,3.09
2023-04-06T04:28:22.496Z,3.09
2023-04-06T04:30:37.348Z,2.69
2023-04-06T04:31:20.403Z,2.69
2023-04-06T04:32:05.663Z,2.69
2023-04-06T04:32:50.376Z,2.96
2023-04-06T04:33:36.590Z,2.96
2023-04-06T04:34:20.535Z,2.55
2023-04-06T04:35:11.600Z,2.69
2023-04-06T04:35:50.167Z,1.74
2023-04-06T04:36:34.852Z,2.82
2023-04-06T04:38:07.316Z,2.69
2023-04-06T04:38:50.628Z,2.42
2023-04-06T04:39:35.400Z,2.96
2023-04-06T04:40:24.758Z,2.82
2023-04-06T04:41:06.531Z,2.96
2023-04-06T04:41:50.647Z,2.42
2023-04-06T04:42:36.316Z,1.83
2023-04-06T04:43:21.686Z,1.74
2023-04-06T04:44:05.722Z,2.42
2023-04-06T04:47:43.745Z,2.96
2023-04-06T04:48:30.637Z,2.69
2023-04-06T04:49:26.524Z,2.69
2023-04-06T04:49:58.176Z,2.01
2023-04-06T04:50:42.972Z,2.82
2023-04-06T04:51:28.299Z,2.69
2023-04-06T04:52:13.557Z,3.09
2023-04-06T04:52:58.526Z,2.96
2023-04-06T04:53:44.793Z,3.09
2023-04-06T04:54:31.481Z,2.28
2023-04-06T04:55:13.752Z,3.23
2023-04-06T04:56:08.720Z,3.36
2023-04-06T04:56:43.885Z,3.49
2023-04-06T04:57:29.255Z,3.23
2023-04-06T04:58:13.898Z,2.10
2023-04-06T04:59:00.354Z,3.36
2023-04-06T04:59:44.329Z,3.49
2023-04-06T05:00:29.512Z,3.36
2023-04-06T05:01:14.180Z,3.36
2023-04-06T05:02:00.716Z,3.36
2023-04-06T05:02:44.078Z,3.63
2023-04-06T05:03:29.795Z,3.63
2023-04-06T05:04:27.395Z,3.36
2023-04-06T05:05:00.366Z,3.49
2023-04-06T05:05:44.407Z,2.56
2023-04-06T05:06:30.497Z,3.63
2023-04-06T05:07:14.424Z,3.76
2023-04-06T05:08:03.069Z,3.90
2023-04-06T05:08:44.500Z,3.90
2023-04-06T05:09:29.374Z,4.30
2023-04-06T05:10:15.011Z,4.43
2023-04-06T05:10:59.469Z,4.30
2023-04-06T05:11:47.077Z,4.30
2023-04-06T05:12:32.334Z,4.43
2023-04-06T05:13:14.734Z,3.11
2023-04-06T05:14:01.298Z,4.84
2023-04-06T05:14:44.840Z,5.38
2023-04-06T05:15:29.711Z,5.38
2023-04-06T05:16:14.995Z,5.11
2023-04-06T05:16:59.808Z,5.38
2023-04-06T05:17:45.544Z,5.38
2023-04-06T05:18:30.261Z,5.24
2023-04-06T05:19:19.019Z,5.78
2023-04-06T05:20:00.576Z,5.78
2023-04-06T05:20:46.312Z,4.02
2023-04-06T05:21:30.259Z,4.29
2023-04-06T05:22:15.832Z,4.47
2023-04-06T05:23:05.905Z,4.57
2023-04-06T05:23:45.134Z,7.53
2023-04-06T05:24:30.569Z,7.79
2023-04-06T05:25:15.127Z,7.39
2023-04-06T05:26:00.174Z,7.79
2023-04-06T05:26:45.496Z,5.21
2023-04-06T05:27:30.525Z,7.26
2023-04-06T05:28:16.061Z,7.79
2023-04-06T05:29:00.682Z,7.66
2023-04-06T05:29:45.349Z,7.66
2023-04-06T05:30:30.330Z,7.79
2023-04-06T05:31:15.853Z,7.53
2023-04-06T05:32:00.521Z,5.57
2023-04-06T05:32:46.053Z,8.06
2023-04-06T05:33:30.937Z,8.47
2023-04-06T05:34:15.903Z,8.06
2023-04-06T05:35:03.067Z,8.33
2023-04-06T05:35:46.203Z,8.47
2023-04-06T05:36:30.687Z,8.87
2023-04-06T05:37:16.784Z,6.12
2023-04-06T05:38:01.583Z,8.87
2023-04-06T05:38:46.388Z,8.87
2023-04-06T05:39:31.504Z,8.73
2023-04-06T05:40:16.354Z,8.73
2023-04-06T05:41:00.984Z,8.87
2023-04-06T05:41:46.803Z,9.41
2023-04-06T05:42:31.522Z,9.27
2023-04-06T05:43:16.568Z,9.94
2023-04-06T05:44:01.855Z,9.68
2023-04-06T05:44:47.001Z,9.54
2023-04-06T05:45:32.561Z,9.54
2023-04-06T05:46:17.255Z,9.81
2023-04-06T05:47:02.328Z,10.62
2023-04-06T05:47:49.763Z,10.35
2023-04-06T05:48:31.963Z,10.48
2023-04-06T05:49:17.157Z,10.88
2023-04-06T05:50:03.100Z,10.88
2023-04-06T05:50:48.151Z,11.29
2023-04-06T05:51:32.022Z,11.42
2023-04-06T05:52:17.172Z,11.69
2023-04-06T05:53:02.313Z,11.29
2023-04-06T05:53:47.098Z,11.69
2023-04-06T05:54:31.969Z,12.23
2023-04-06T05:55:18.024Z,12.36
2023-04-06T05:56:02.929Z,12.77
2023-04-06T05:56:47.615Z,11.96
2023-04-06T05:57:32.447Z,12.63
2023-04-06T05:58:17.696Z,12.77
2023-04-06T05:59:02.702Z,12.63
2023-04-06T05:59:47.391Z,13.04
2023-04-06T06:00:32.753Z,13.04
2023-04-06T06:01:18.756Z,12.77
2023-04-06T06:02:02.978Z,13.30
2023-04-06T06:02:48.194Z,8.77
2023-04-06T06:03:33.092Z,13.57
2023-04-06T06:04:27.053Z,13.17
2023-04-06T06:05:03.475Z,13.57
2023-04-06T06:05:53.309Z,14.24
2023-04-06T06:06:32.902Z,13.98
2023-04-06T06:07:18.694Z,13.98
2023-04-06T06:08:04.056Z,14.11
2023-04-06T06:08:48.382Z,15.19
2023-04-06T06:09:40.789Z,9.86
2023-04-06T06:11:07.210Z,15.72
2023-04-06T07:21:54.561Z,15.19
2023-04-06T08:33:05.151Z,15.32
2023-04-06T08:33:49.433Z,15.45
2023-04-06T08:34:33.749Z,15.72
2023-04-06T08:35:18.955Z,15.45
2023-04-06T08:36:03.930Z,15.86
2023-04-06T08:36:49.178Z,15.72
2023-04-06T08:37:34.196Z,16.26
2023-04-06T08:38:19.187Z,16.13
2023-04-06T08:39:04.230Z,15.86
2023-04-06T08:39:49.308Z,15.59
2023-04-06T08:40:34.600Z,10.41
2023-04-06T08:41:19.870Z,15.32
2023-04-06T08:42:04.460Z,10.59
2023-04-06T08:42:49.656Z,15.45
2023-04-06T08:43:37.757Z,15.05
2023-04-06T08:44:19.495Z,15.59
2023-04-06T08:45:04.453Z,15.45
2023-04-06T08:45:49.395Z,15.32
2023-04-06T08:46:34.510Z,15.45
2023-04-06T08:47:20.193Z,15.05
2023-04-06T08:48:04.850Z,15.19
2023-04-06T08:48:49.666Z,15.72
2023-04-06T08:49:37.841Z,15.72
2023-04-06T08:50:20.090Z,16.26
2023-04-06T08:51:05.212Z,16.53
2023-04-06T08:51:50.218Z,16.26
2023-04-06T08:52:38.425Z,16.26
2023-04-06T08:55:12.487Z,16.39
2023-04-06T08:56:11.941Z,16.80
2023-04-06T08:59:52.783Z,11.23
2023-04-06T09:00:00.695Z,15.99
2023-04-06T09:00:31.242Z,16.26
2023-04-06T09:01:33.465Z,16.66
2023-04-06T09:02:05.203Z,10.87
2023-04-06T09:03:36.374Z,16.66
2023-04-06T09:04:16.201Z,11.23
2023-04-06T09:05:05.331Z,16.93
2023-04-06T09:05:43.427Z,16.13
2023-04-06T09:06:34.165Z,16.13
2023-04-06T09:07:20.136Z,16.53
2023-04-06T09:08:01.053Z,16.80
2023-04-06T09:09:00.737Z,16.53
2023-04-06T09:10:35.437Z,16.13
2023-04-06T09:10:59.096Z,17.34
2023-04-06T12:22:02.468Z,31.31
2023-04-06T12:52:03.268Z,28.76
2023-04-06T15:43:03.189Z,22.04
2023-04-06T15:43:46.687Z,14.79
2023-04-06T15:45:18.696Z,21.50
2023-04-06T18:58:00.332Z,19.08
2023-04-06T18:58:28.119Z,19.49
2023-04-06T19:03:17.659Z,19.22
2023-04-06T20:33:01.926Z,9.81
2023-04-06T20:45:48.372Z,10.08
